Terminal Aerodrome Forecast
Issued by NWS

Home | Current Version | Previous Version | Text Only | Print | Product List | Glossary Off
Versions: 1 2 3 4 5 6 7 8 9 10 11 12 13 14 15 16 17 18 19 20 21 22 23 24 25 26 27 28 29 30 31 32

000
FTUS43 KLOT 230305 AAA
TAFORD
TAF AMD
KORD 230305Z 2303/2406 15004KT P6SM SCT030
     FM230700 00000KT 6SM BR FEW015 SCT030
     FM231500 12005KT P6SM SCT040
     FM232100 09008KT P6SM SCT050 BKN250=

USA.gov is the U.S. government's official web portal to all federal, state and local government web resources and services.